Time;durP1;ratioP1;P1;durP2;ratioP2;P2;SDS_P1;SDS_P2;PMS_P1;PMS_P2;Temp;Humidity;BMP_temperature;BMP_pressure;BME280_temperature;BME280_humidity;BME280_pressure;Samples;Min_cycle;Max_cycle;Signal;HPM_P1;HPM_P2
2021/09/09 00:01:03;;;;;;;11.57;9.77;;;18.50;92.60;;;;;;5083277;28;20051;-75
2021/09/09 00:03:30;;;;;;;10.25;8.63;;;18.60;92.80;;;;;;5082107;28;20044;-75
2021/09/09 00:05:57;;;;;;;9.70;8.25;;;18.50;92.80;;;;;;5083402;28;20038;-75
2021/09/09 00:08:24;;;;;;;10.13;8.32;;;18.50;92.80;;;;;;5082054;28;20028;-75
2021/09/09 00:10:51;;;;;;;11.32;9.40;;;18.50;92.80;;;;;;5082947;28;20034;-75
2021/09/09 00:13:20;;;;;;;11.98;9.13;;;18.50;93.00;;;;;;5082832;28;20024;-75
2021/09/09 00:15:47;;;;;;;12.27;10.27;;;18.50;93.00;;;;;;5064411;28;20040;-75
2021/09/09 00:18:14;;;;;;;12.85;10.07;;;18.50;93.10;;;;;;5081714;28;20035;-75
2021/09/09 00:20:40;;;;;;;10.43;8.25;;;18.50;93.10;;;;;;5083450;28;20047;-75
2021/09/09 00:23:08;;;;;;;10.93;9.13;;;18.40;93.10;;;;;;5083684;28;20562;-75
2021/09/09 00:25:36;;;;;;;12.43;9.23;;;18.40;93.10;;;;;;5065142;28;20055;-75
2021/09/09 00:28:03;;;;;;;12.25;10.07;;;18.40;93.20;;;;;;5063145;28;20024;-75
2021/09/09 00:30:31;;;;;;;12.07;9.70;;;18.30;93.20;;;;;;5081295;28;20062;-75
2021/09/09 00:33:08;;;;;;;11.23;10.13;;;18.30;93.30;;;;;;5081461;28;20040;-75
2021/09/09 00:35:36;;;;;;;11.18;9.18;;;18.30;93.50;;;;;;5065021;28;20036;-75
2021/09/09 00:38:04;;;;;;;12.35;9.13;;;18.30;93.50;;;;;;5081657;28;20135;-76
2021/09/09 00:40:30;;;;;;;11.27;8.82;;;18.20;93.50;;;;;;5082852;28;20051;-75
2021/09/09 00:42:57;;;;;;;12.63;10.63;;;18.20;93.60;;;;;;5044052;28;20043;-75
2021/09/09 00:45:24;;;;;;;10.48;9.32;;;18.10;93.70;;;;;;5063753;28;20024;-75
2021/09/09 00:47:50;;;;;;;11.18;9.48;;;18.10;93.70;;;;;;5061800;28;20042;-75
2021/09/09 00:50:17;;;;;;;10.15;9.02;;;18.10;93.70;;;;;;5046223;28;20032;-74
2021/09/09 00:52:49;;;;;;;13.10;10.55;;;18.10;93.70;;;;;;5082387;28;20048;-75
2021/09/09 00:55:16;;;;;;;12.30;9.45;;;18.10;93.90;;;;;;5082133;28;20039;-75
2021/09/09 00:57:44;;;;;;;11.15;9.05;;;18.00;93.90;;;;;;5080620;28;20036;-75
2021/09/09 01:00:12;;;;;;;11.90;9.48;;;18.00;93.80;;;;;;5064127;28;20040;-75
2021/09/09 01:02:38;;;;;;;10.88;9.77;;;18.00;93.90;;;;;;5081981;28;20462;-75
2021/09/09 01:05:06;;;;;;;13.23;9.80;;;18.00;93.90;;;;;;5063291;28;20663;-75
2021/09/09 01:07:33;;;;;;;12.38;10.10;;;18.00;94.00;;;;;;5082362;28;20039;-75
2021/09/09 01:10:00;;;;;;;10.80;9.68;;;18.00;94.00;;;;;;5047159;28;20024;-75
2021/09/09 01:12:26;;;;;;;11.43;8.82;;;17.90;94.00;;;;;;5084432;28;20039;-75
2021/09/09 01:14:53;;;;;;;9.57;8.05;;;17.90;94.00;;;;;;5081253;28;20043;-75
2021/09/09 01:17:20;;;;;;;12.20;9.32;;;17.90;94.00;;;;;;5082375;28;20028;-75
2021/09/09 01:19:46;;;;;;;14.00;9.52;;;17.90;94.20;;;;;;5082064;28;20378;-75
2021/09/09 01:22:13;;;;;;;16.02;10.63;;;17.80;94.10;;;;;;5084567;28;20036;-75
2021/09/09 01:24:39;;;;;;;11.98;9.32;;;17.80;94.20;;;;;;5086531;28;20042;-75
2021/09/09 01:27:17;;;;;;;10.48;8.88;;;17.80;94.20;;;;;;5069447;28;20522;-75
2021/09/09 01:29:45;;;;;;;12.35;10.30;;;17.80;94.20;;;;;;5083402;28;20032;-75
2021/09/09 01:32:12;;;;;;;10.77;8.82;;;17.80;94.40;;;;;;5086276;28;20039;-75
2021/09/09 01:34:39;;;;;;;10.85;9.40;;;17.70;94.50;;;;;;5085861;28;20672;-74
2021/09/09 01:37:05;;;;;;;13.13;9.93;;;17.70;94.50;;;;;;5085665;28;20036;-75
2021/09/09 01:39:35;;;;;;;12.45;10.43;;;17.70;94.50;;;;;;5066336;28;20048;-75
2021/09/09 01:42:02;;;;;;;14.95;10.80;;;17.70;94.60;;;;;;5086311;28;20045;-75
2021/09/09 01:44:29;;;;;;;10.70;9.60;;;17.70;94.90;;;;;;5068139;28;20035;-75
2021/09/09 01:46:56;;;;;;;11.45;9.48;;;17.60;94.70;;;;;;5084298;28;20109;-75
2021/09/09 01:49:23;;;;;;;10.40;8.63;;;17.60;94.70;;;;;;5085265;28;20348;-75
2021/09/09 01:51:49;;;;;;;10.00;8.50;;;17.60;94.80;;;;;;5065220;28;20037;-75
2021/09/09 01:54:16;;;;;;;12.30;9.48;;;17.60;94.80;;;;;;5067957;28;20032;-75
2021/09/09 01:56:43;;;;;;;10.80;9.52;;;17.50;94.80;;;;;;5065109;28;20048;-75
2021/09/09 01:59:09;;;;;;;11.13;10.00;;;17.50;94.90;;;;;;5065943;28;20040;-75
2021/09/09 02:01:36;;;;;;;13.35;9.48;;;17.50;94.90;;;;;;5085684;28;20043;-74
2021/09/09 02:04:02;;;;;;;11.25;9.35;;;17.50;94.90;;;;;;5085384;28;20028;-75
2021/09/09 02:06:29;;;;;;;11.38;9.32;;;17.50;95.00;;;;;;5084444;28;20184;-75
2021/09/09 02:08:55;;;;;;;12.82;9.93;;;17.50;95.00;;;;;;5084420;28;20032;-75
2021/09/09 02:11:22;;;;;;;10.18;8.25;;;17.40;95.30;;;;;;5087163;28;20039;-75
2021/09/09 02:13:49;;;;;;;14.07;9.38;;;17.40;95.00;;;;;;5085710;28;20020;-75
2021/09/09 02:16:15;;;;;;;13.13;11.02;;;17.40;95.10;;;;;;5035597;28;20051;-75
2021/09/09 02:18:41;;;;;;;12.95;10.15;;;17.40;95.20;;;;;;5084308;28;20043;-75
2021/09/09 02:21:08;;;;;;;14.80;10.05;;;17.30;95.20;;;;;;5067349;28;20039;-74
2021/09/09 02:23:34;;;;;;;10.73;9.63;;;17.30;95.30;;;;;;5066988;28;20066;-75
2021/09/09 02:26:01;;;;;;;11.52;9.85;;;17.30;95.30;;;;;;5084947;28;20028;-75
2021/09/09 02:28:27;;;;;;;11.80;9.93;;;17.30;95.30;;;;;;5083536;28;20035;-75
2021/09/09 02:30:54;;;;;;;11.52;9.20;;;17.20;95.30;;;;;;5084807;28;20082;-75
2021/09/09 02:33:20;;;;;;;12.10;10.20;;;17.20;95.40;;;;;;5084234;28;20043;-74
2021/09/09 02:35:46;;;;;;;11.30;8.93;;;17.20;95.50;;;;;;5085204;28;20887;-74
2021/09/09 02:38:13;;;;;;;12.57;11.07;;;17.20;95.50;;;;;;5065644;28;20042;-75
2021/09/09 02:40:40;;;;;;;12.32;10.20;;;17.10;95.70;;;;;;5066286;28;20056;-75
2021/09/09 02:43:07;;;;;;;12.77;10.77;;;17.10;95.70;;;;;;5084891;28;20035;-75
2021/09/09 02:45:34;;;;;;;12.63;10.13;;;17.10;95.80;;;;;;5083836;28;20051;-75
2021/09/09 02:48:02;;;;;;;11.25;9.93;;;17.10;95.80;;;;;;5083280;28;20032;-75
2021/09/09 02:50:29;;;;;;;10.88;8.77;;;17.10;95.80;;;;;;5065316;28;20459;-75
2021/09/09 02:52:56;;;;;;;11.68;9.68;;;17.00;95.80;;;;;;5066626;28;20055;-75
2021/09/09 02:55:22;;;;;;;14.82;10.13;;;17.00;95.80;;;;;;5084541;28;20035;-74
2021/09/09 02:57:48;;;;;;;10.85;9.48;;;16.90;95.90;;;;;;5065457;28;20032;-75
2021/09/09 03:00:15;;;;;;;11.15;9.85;;;17.00;95.90;;;;;;5064447;28;20032;-75
2021/09/09 03:02:42;;;;;;;12.20;9.68;;;16.90;95.90;;;;;;5084848;28;20051;-75
2021/09/09 03:05:09;;;;;;;13.02;10.43;;;16.90;96.00;;;;;;5084369;28;20047;-75
2021/09/09 03:07:35;;;;;;;11.05;9.80;;;16.90;96.00;;;;;;5065002;28;20032;-74
2021/09/09 03:10:02;;;;;;;13.50;11.35;;;16.90;96.10;;;;;;5083501;28;20389;-74
2021/09/09 03:12:29;;;;;;;11.73;10.13;;;16.90;96.10;;;;;;5086417;28;20028;-75
2021/09/09 03:14:55;;;;;;;12.50;10.88;;;16.90;96.10;;;;;;5082398;28;20036;-75
2021/09/09 03:17:22;;;;;;;12.18;10.82;;;16.80;96.20;;;;;;5083180;28;20032;-75
2021/09/09 03:19:48;;;;;;;15.45;11.65;;;16.80;96.50;;;;;;5064666;28;20046;-75
2021/09/09 03:22:15;;;;;;;12.35;10.50;;;16.80;96.30;;;;;;5084174;28;20106;-75
2021/09/09 03:24:41;;;;;;;12.07;10.77;;;16.80;96.30;;;;;;5083977;28;20043;-75
2021/09/09 03:27:08;;;;;;;12.45;11.25;;;16.80;96.40;;;;;;5083262;28;20367;-75
2021/09/09 03:29:34;;;;;;;14.98;11.20;;;16.80;96.40;;;;;;5064515;28;20067;-75
2021/09/09 03:32:01;;;;;;;13.55;11.73;;;16.80;96.40;;;;;;5084133;28;20024;-75
2021/09/09 03:34:27;;;;;;;16.27;10.95;;;16.80;96.50;;;;;;5066181;28;20067;-75
2021/09/09 03:36:54;;;;;;;12.60;10.52;;;16.80;96.50;;;;;;5046729;28;20044;-75
2021/09/09 03:39:20;;;;;;;11.82;10.40;;;16.70;96.50;;;;;;5065037;28;20418;-75
2021/09/09 03:41:46;;;;;;;11.20;9.93;;;16.70;96.50;;;;;;5065726;28;20028;-75
2021/09/09 03:44:13;;;;;;;12.05;10.57;;;16.70;96.60;;;;;;5083002;28;20036;-75
2021/09/09 03:46:40;;;;;;;13.05;10.73;;;16.70;96.60;;;;;;5081875;28;20035;-75
2021/09/09 03:49:06;;;;;;;13.85;11.23;;;16.60;96.70;;;;;;5082947;28;20032;-75
2021/09/09 03:51:33;;;;;;;12.70;11.18;;;16.60;96.70;;;;;;5083345;28;20048;-75
2021/09/09 03:53:59;;;;;;;12.65;11.35;;;16.60;96.80;;;;;;5083787;28;20040;-75
2021/09/09 03:56:26;;;;;;;11.55;9.90;;;16.60;96.80;;;;;;5082738;28;20483;-75
2021/09/09 03:58:52;;;;;;;13.35;10.77;;;16.60;96.80;;;;;;5064518;28;20039;-75
2021/09/09 04:01:18;;;;;;;13.48;11.00;;;16.60;96.80;;;;;;5048532;28;20731;-75
2021/09/09 04:03:46;;;;;;;14.25;11.43;;;16.60;96.90;;;;;;5083807;28;20036;-75
2021/09/09 04:06:13;;;;;;;12.23;10.93;;;16.50;96.90;;;;;;5083178;28;20035;-75
2021/09/09 04:08:40;;;;;;;13.57;11.35;;;16.60;96.90;;;;;;5063572;28;20048;-75
2021/09/09 04:11:06;;;;;;;14.65;11.73;;;16.50;96.90;;;;;;5083342;28;20036;-75
2021/09/09 04:13:33;;;;;;;13.05;11.70;;;16.50;97.00;;;;;;5083390;28;20514;-75
2021/09/09 04:15:59;;;;;;;15.65;11.50;;;16.50;97.00;;;;;;5083030;28;20040;-75
2021/09/09 04:18:25;;;;;;;13.75;11.43;;;16.60;97.00;;;;;;5063038;28;20032;-74
2021/09/09 04:20:52;;;;;;;13.95;12.45;;;16.50;97.00;;;;;;5065564;28;20071;-75
2021/09/09 04:23:18;;;;;;;13.30;11.40;;;16.50;97.10;;;;;;5062840;28;20043;-75
2021/09/09 04:25:45;;;;;;;15.15;11.25;;;16.50;97.10;;;;;;5083438;28;20048;-75
2021/09/09 04:28:13;;;;;;;12.85;11.30;;;16.50;97.10;;;;;;5081732;28;20031;-75
2021/09/09 04:30:39;;;;;;;12.38;11.00;;;16.50;97.20;;;;;;5083257;28;20534;-75
2021/09/09 04:33:06;;;;;;;18.45;11.82;;;16.50;97.20;;;;;;5082489;28;20031;-75
2021/09/09 04:35:32;;;;;;;17.23;12.95;;;16.50;97.50;;;;;;5083236;28;20853;-75
2021/09/09 04:37:59;;;;;;;12.80;11.43;;;16.40;97.30;;;;;;5081723;28;20051;-75
2021/09/09 04:40:25;;;;;;;13.75;11.38;;;16.40;97.30;;;;;;5064167;28;20032;-75
2021/09/09 04:42:52;;;;;;;14.57;12.05;;;16.40;97.40;;;;;;5083092;28;20028;-74
2021/09/09 04:45:18;;;;;;;13.18;11.70;;;16.40;97.40;;;;;;5081719;28;20032;-75
2021/09/09 04:47:45;;;;;;;17.10;12.80;;;16.30;97.40;;;;;;5080846;28;20043;-75
2021/09/09 04:50:11;;;;;;;14.60;13.02;;;16.40;97.50;;;;;;5082324;28;20036;-75
2021/09/09 04:52:37;;;;;;;17.30;12.88;;;16.40;97.60;;;;;;5082822;28;20044;-75
2021/09/09 04:55:04;;;;;;;15.30;12.23;;;16.30;97.60;;;;;;5083113;28;20032;-74
2021/09/09 04:57:31;;;;;;;15.90;12.07;;;16.30;97.60;;;;;;5084209;28;20039;-74
2021/09/09 04:59:57;;;;;;;13.75;11.57;;;16.30;97.90;;;;;;5085620;28;20031;-75
2021/09/09 05:02:28;;;;;;;12.57;11.27;;;16.30;97.70;;;;;;5068682;28;20039;-75
2021/09/09 05:04:54;;;;;;;13.25;11.10;;;16.30;97.70;;;;;;5087238;28;20589;-75
2021/09/09 05:07:21;;;;;;;14.80;11.98;;;16.30;97.70;;;;;;5066199;28;20028;-74
2021/09/09 05:09:47;;;;;;;14.65;12.63;;;16.30;97.80;;;;;;5067872;28;20043;-75
2021/09/09 05:12:14;;;;;;;14.70;11.63;;;16.30;97.90;;;;;;5068950;28;20032;-75
2021/09/09 05:14:40;;;;;;;14.95;12.10;;;16.30;97.90;;;;;;5086918;28;20047;-75
2021/09/09 05:17:06;;;;;;;14.20;12.40;;;16.30;98.10;;;;;;5085869;28;20028;-75
2021/09/09 05:19:33;;;;;;;17.88;13.15;;;16.30;97.90;;;;;;5067376;28;20481;-75
2021/09/09 05:22:01;;;;;;;15.30;12.40;;;16.30;97.90;;;;;;5087525;28;20028;-74
2021/09/09 05:24:27;;;;;;;13.75;11.52;;;16.30;97.90;;;;;;5086584;28;20598;-75
2021/09/09 05:26:54;;;;;;;15.85;13.05;;;16.30;97.90;;;;;;5085361;28;20047;-75
2021/09/09 05:29:22;;;;;;;14.05;12.13;;;16.30;97.90;;;;;;5050445;28;20036;-75
2021/09/09 05:31:49;;;;;;;18.17;13.18;;;16.30;98.00;;;;;;5087356;28;20032;-74
2021/09/09 05:34:16;;;;;;;13.70;12.20;;;16.30;98.00;;;;;;5051119;28;20394;-75
2021/09/09 05:36:42;;;;;;;16.30;12.20;;;16.30;98.00;;;;;;5085241;28;20036;-75
2021/09/09 05:39:13;;;;;;;13.93;12.40;;;16.30;98.00;;;;;;5051180;28;20051;-75
2021/09/09 05:41:40;;;;;;;14.13;12.70;;;16.40;98.10;;;;;;5051016;28;20048;-75
2021/09/09 05:44:06;;;;;;;13.27;11.85;;;16.50;98.10;;;;;;5068787;28;20047;-75
2021/09/09 05:46:33;;;;;;;14.07;12.48;;;16.40;98.10;;;;;;5066337;28;20579;-75
2021/09/09 05:48:59;;;;;;;13.10;11.23;;;16.50;98.10;;;;;;5067106;28;20044;-75
2021/09/09 05:51:26;;;;;;;14.05;12.50;;;16.50;98.10;;;;;;5086220;28;20784;-75
2021/09/09 05:53:52;;;;;;;17.13;12.88;;;16.50;98.10;;;;;;5086087;28;20032;-75
2021/09/09 05:56:19;;;;;;;13.55;11.15;;;16.60;98.10;;;;;;5082413;28;20040;-74
2021/09/09 05:58:45;;;;;;;13.57;12.13;;;16.70;98.10;;;;;;5078436;28;20474;-74
2021/09/09 06:01:11;;;;;;;14.32;12.10;;;16.70;98.10;;;;;;5080483;28;20386;-74
2021/09/09 06:03:39;;;;;;;16.75;13.20;;;16.80;98.00;;;;;;5080160;28;20028;-74
2021/09/09 06:06:06;;;;;;;16.25;13.20;;;16.90;98.00;;;;;;5084435;28;20031;-74
2021/09/09 06:08:35;;;;;;;15.27;12.57;;;17.00;97.90;;;;;;5042211;28;20435;-74
2021/09/09 06:11:01;;;;;;;18.38;12.90;;;17.20;97.80;;;;;;5076345;28;20029;-74
2021/09/09 06:13:28;;;;;;;13.68;12.05;;;17.30;97.70;;;;;;5083351;28;20024;-75
2021/09/09 06:15:55;;;;;;;10.93;8.75;;;17.40;97.60;;;;;;5057799;28;20028;-74
2021/09/09 06:18:21;;;;;;;13.15;11.73;;;17.50;97.40;;;;;;5077430;28;20120;-74
2021/09/09 06:20:48;;;;;;;15.98;12.93;;;17.60;97.30;;;;;;5064545;28;20036;-74
2021/09/09 06:23:18;;;;;;;15.65;12.38;;;17.80;97.20;;;;;;5066450;28;20028;-75
2021/09/09 06:25:44;;;;;;;17.48;14.32;;;17.90;97.10;;;;;;5084683;28;20036;-74
2021/09/09 06:28:10;;;;;;;14.98;13.15;;;18.00;97.10;;;;;;5062591;28;20040;-74
2021/09/09 06:30:37;;;;;;;14.80;13.30;;;18.10;96.90;;;;;;5080706;28;20043;-75
2021/09/09 06:33:04;;;;;;;17.20;13.32;;;18.10;96.80;;;;;;5084600;28;20032;-74
2021/09/09 06:35:30;;;;;;;16.33;14.18;;;18.20;96.90;;;;;;5083300;28;20060;-74
2021/09/09 06:37:57;;;;;;;16.95;15.15;;;18.20;96.80;;;;;;5056935;28;20039;-74
2021/09/09 06:40:24;;;;;;;17.38;14.30;;;18.30;96.70;;;;;;5077331;28;20047;-75
2021/09/09 06:42:50;;;;;;;17.48;14.45;;;18.40;96.70;;;;;;5066071;28;20051;-73
2021/09/09 06:45:17;;;;;;;17.23;14.82;;;18.50;96.60;;;;;;5085036;28;20032;-74
2021/09/09 06:47:43;;;;;;;19.45;15.20;;;18.60;96.50;;;;;;5077395;28;20028;-73
2021/09/09 06:50:10;;;;;;;18.58;15.15;;;18.70;96.30;;;;;;5082963;28;20406;-73
2021/09/09 06:52:36;;;;;;;16.13;14.35;;;18.90;96.20;;;;;;5064515;28;20056;-74
2021/09/09 06:55:05;;;;;;;19.05;14.52;;;19.00;96.10;;;;;;5084984;28;20039;-74
2021/09/09 06:57:32;;;;;;;19.88;15.38;;;19.10;95.90;;;;;;5046696;28;20056;-75
2021/09/09 06:59:58;;;;;;;16.92;14.88;;;19.20;95.80;;;;;;5083355;28;20439;-74
2021/09/09 07:02:25;;;;;;;15.90;13.80;;;19.20;95.60;;;;;;5063726;28;20032;-74
2021/09/09 07:04:51;;;;;;;18.20;15.25;;;19.40;95.60;;;;;;5065846;28;20037;-74
2021/09/09 07:07:18;;;;;;;16.45;14.55;;;19.50;95.40;;;;;;5046814;28;20099;-74
2021/09/09 07:09:45;;;;;;;16.23;13.38;;;19.60;95.30;;;;;;5083104;28;20407;-74
2021/09/09 07:12:12;;;;;;;17.95;14.93;;;19.70;95.20;;;;;;5079428;28;21121;-74
2021/09/09 07:14:38;;;;;;;14.65;13.10;;;19.80;95.10;;;;;;5064733;28;20039;-74
2021/09/09 07:17:05;;;;;;;18.75;15.52;;;19.90;94.90;;;;;;5082163;28;20044;-75
2021/09/09 07:19:31;;;;;;;17.60;14.75;;;20.00;94.80;;;;;;5064528;28;20048;-74
2021/09/09 07:21:58;;;;;;;16.23;14.43;;;20.10;94.70;;;;;;5083516;28;20043;-74
2021/09/09 07:24:24;;;;;;;16.40;14.70;;;20.20;94.50;;;;;;5047551;28;20040;-75
2021/09/09 07:26:51;;;;;;;16.92;14.13;;;20.30;94.30;;;;;;5082675;28;20043;-74
2021/09/09 07:29:17;;;;;;;17.45;15.57;;;20.40;94.20;;;;;;5078950;28;20040;-74
2021/09/09 07:31:45;;;;;;;17.90;14.57;;;20.50;94.10;;;;;;5083909;28;20028;-75
2021/09/09 07:34:11;;;;;;;20.00;14.57;;;20.60;93.90;;;;;;5065202;28;20059;-76
2021/09/09 07:36:39;;;;;;;15.00;13.05;;;20.70;93.80;;;;;;5064628;28;20047;-75
2021/09/09 07:39:06;;;;;;;16.73;14.52;;;20.90;93.70;;;;;;5080904;28;20043;-75
2021/09/09 07:41:32;;;;;;;16.00;13.95;;;21.00;93.50;;;;;;5064909;28;20794;-75
2021/09/09 07:43:59;;;;;;;18.40;14.95;;;21.10;93.30;;;;;;5065602;28;20033;-75
2021/09/09 07:46:26;;;;;;;16.65;14.48;;;21.20;93.20;;;;;;5063203;28;20036;-75
2021/09/09 07:48:53;;;;;;;16.42;14.25;;;21.30;93.00;;;;;;5083042;28;20040;-75
2021/09/09 07:51:22;;;;;;;14.40;12.90;;;21.40;92.90;;;;;;5083856;28;20521;-75
2021/09/09 07:53:50;;;;;;;15.60;14.00;;;21.60;92.80;;;;;;5065433;28;20407;-75
2021/09/09 07:56:16;;;;;;;15.82;14.07;;;21.70;92.60;;;;;;5080202;28;20039;-76
2021/09/09 07:58:47;;;;;;;18.45;13.27;;;21.90;92.40;;;;;;5078448;28;20036;-76
2021/09/09 08:01:13;;;;;;;15.27;12.95;;;22.00;92.10;;;;;;5060263;28;20039;-76
2021/09/09 08:03:40;;;;;;;17.42;15.43;;;22.10;91.80;;;;;;5080977;28;20024;-76
2021/09/09 08:06:06;;;;;;;20.08;14.70;;;22.20;91.70;;;;;;5083786;28;20032;-76
2021/09/09 08:08:32;;;;;;;16.60;13.25;;;22.30;91.60;;;;;;5063044;28;20040;-75
2021/09/09 08:10:59;;;;;;;14.07;12.00;;;22.30;91.50;;;;;;5083789;28;20032;-75
2021/09/09 08:13:25;;;;;;;12.85;11.52;;;22.40;91.50;;;;;;5065056;28;20032;-75
2021/09/09 08:15:52;;;;;;;15.45;13.38;;;22.70;91.40;;;;;;5047818;28;20043;-76
2021/09/09 08:18:18;;;;;;;14.57;13.02;;;22.80;91.10;;;;;;5062524;28;20043;-75
2021/09/09 08:20:45;;;;;;;13.90;12.50;;;22.90;90.90;;;;;;5065053;28;20051;-76
2021/09/09 08:23:11;;;;;;;13.82;12.40;;;23.00;90.80;;;;;;5082676;28;20381;-76
2021/09/09 08:25:38;;;;;;;18.67;14.32;;;23.20;90.70;;;;;;5083261;28;20024;-76
2021/09/09 08:28:04;;;;;;;14.05;12.55;;;23.20;90.40;;;;;;5081156;28;20059;-76
2021/09/09 08:30:31;;;;;;;15.18;12.07;;;23.30;90.40;;;;;;5081840;28;20479;-76
2021/09/09 08:32:57;;;;;;;12.88;11.35;;;23.30;90.10;;;;;;5086341;28;20475;-76
2021/09/09 08:35:24;;;;;;;19.70;15.73;;;23.40;90.10;;;;;;5068626;28;20036;-75
2021/09/09 08:37:50;;;;;;;15.13;13.20;;;23.50;88.80;;;;;;5067561;28;20052;-76
2021/09/09 08:40:17;;;;;;;13.98;11.73;;;23.60;88.40;;;;;;5087267;28;20764;-76
2021/09/09 08:42:44;;;;;;;10.55;9.55;;;23.60;88.50;;;;;;5087651;28;20039;-75
2021/09/09 08:45:13;;;;;;;10.10;9.00;;;23.70;88.50;;;;;;5087249;28;20039;-76
2021/09/09 08:47:41;;;;;;;11.95;10.75;;;23.90;88.50;;;;;;5067430;28;20578;-76
2021/09/09 08:50:09;;;;;;;12.75;11.35;;;24.00;88.00;;;;;;5086837;28;20043;-76
2021/09/09 08:52:36;;;;;;;11.07;7.88;;;24.20;87.70;;;;;;5063108;28;20051;-76
2021/09/09 08:55:03;;;;;;;14.43;9.15;;;24.20;87.30;;;;;;5067216;28;20032;-76
2021/09/09 08:57:32;;;;;;;10.20;7.80;;;24.40;87.00;;;;;;5065596;28;20044;-76
2021/09/09 08:59:59;;;;;;;12.05;10.55;;;24.60;86.50;;;;;;5064281;28;20032;-76
2021/09/09 09:02:26;;;;;;;13.10;9.65;;;24.70;84.70;;;;;;5067062;28;20035;-76
2021/09/09 09:05:08;;;;;;;10.63;8.80;;;24.80;84.40;;;;;;5065364;28;20032;-75
2021/09/09 09:07:35;;;;;;;;;;;24.90;83.60;;;;;;5064488;28;20039;-75
2021/09/09 09:10:05;;;;;;;11.98;7.70;;;25.10;83.80;;;;;;5066011;28;19917;-75
2021/09/09 09:12:37;;;;;;;11.50;8.45;;;25.30;83.60;;;;;;5065499;28;20032;-76
2021/09/09 09:15:28;;;;;;;13.30;9.70;;;25.50;83.10;;;;;;5065819;28;20047;-76
2021/09/09 09:17:55;;;;;;;13.07;8.68;;;25.70;82.80;;;;;;5065023;28;20039;-76
2021/09/09 09:20:25;;;;;;;9.43;7.28;;;25.80;82.60;;;;;;5067378;28;20033;-77
2021/09/09 09:22:53;;;;;;;9.23;7.97;;;26.10;82.20;;;;;;5064278;28;20060;-76
2021/09/09 09:25:52;;;;;;;11.93;9.00;;;26.30;81.90;;;;;;5065995;28;20048;-75
2021/09/09 09:28:55;;;;;;;10.55;7.72;;;26.40;81.10;;;;;;5062240;28;20032;-74
2021/09/09 09:31:29;;;;;;;10.38;7.97;;;26.50;80.50;;;;;;5002781;28;20034;-75
2021/09/09 09:34:01;;;;;;;9.40;7.28;;;26.50;80.10;;;;;;5052085;28;20052;-75
2021/09/09 09:36:31;;;;;;;10.13;8.95;;;26.70;80.30;;;;;;5056506;28;20063;-75
2021/09/09 09:39:08;;;;;;;10.10;8.23;;;26.90;79.30;;;;;;5062457;28;20399;-75
2021/09/09 09:41:39;;;;;;;9.27;8.25;;;26.90;79.00;;;;;;5056710;28;20039;-75
2021/09/09 09:44:09;;;;;;;11.18;8.43;;;27.10;78.60;;;;;;5062436;28;20044;-75
2021/09/09 09:46:39;;;;;;;7.97;7.18;;;27.30;78.20;;;;;;5063435;28;20051;-75
2021/09/09 09:49:20;;;;;;;8.90;7.65;;;27.50;78.00;;;;;;5061614;28;20491;-76
2021/09/09 09:51:48;;;;;;;7.93;7.13;;;27.60;77.30;;;;;;5066429;28;20052;-78
2021/09/09 09:54:16;;;;;;;8.15;6.22;;;27.70;77.00;;;;;;5068729;28;20308;-78
2021/09/09 09:56:44;;;;;;;10.65;6.80;;;27.70;76.30;;;;;;5082431;28;20090;-77
2021/09/09 09:59:10;;;;;;;10.15;7.32;;;27.80;75.90;;;;;;5080705;28;20024;-77
2021/09/09 10:01:37;;;;;;;8.57;7.00;;;27.80;75.50;;;;;;5051032;28;20120;-77
2021/09/09 10:04:13;;;;;;;8.68;7.68;;;27.80;75.60;;;;;;5065522;28;20098;-78
2021/09/09 10:06:41;;;;;;;8.55;7.70;;;28.10;75.50;;;;;;5081338;28;20036;-78
2021/09/09 10:09:08;;;;;;;9.35;8.43;;;28.20;75.10;;;;;;5064946;28;20028;-78
2021/09/09 10:11:35;;;;;;;9.95;7.90;;;28.40;74.50;;;;;;5063563;28;20040;-78
2021/09/09 10:14:04;;;;;;;9.95;8.88;;;28.50;74.30;;;;;;5083471;28;20035;-78
2021/09/09 10:16:42;;;;;;;9.00;7.05;;;28.50;74.00;;;;;;5063321;28;20032;-78
2021/09/09 10:19:13;;;;;;;11.23;8.20;;;28.70;74.20;;;;;;5083139;28;20402;-78
2021/09/09 10:21:48;;;;;;;9.95;8.45;;;28.70;73.70;;;;;;5083784;28;20040;-78
2021/09/09 10:24:29;;;;;;;11.23;7.75;;;28.80;73.30;;;;;;5064844;28;20039;-78
2021/09/09 10:27:16;;;;;;;11.40;8.65;;;28.80;73.60;;;;;;5084482;28;20919;-78
2021/09/09 10:29:53;;;;;;;8.98;7.97;;;29.00;73.00;;;;;;5083223;28;20028;-79
2021/09/09 10:32:29;;;;;;;8.68;7.75;;;29.20;73.10;;;;;;5066117;28;20032;-78
2021/09/09 10:35:30;;;;;;;8.85;6.28;;;29.40;71.80;;;;;;5084800;28;20036;-78
2021/09/09 10:38:20;;;;;;;10.85;8.20;;;29.60;72.00;;;;;;5052713;28;20044;-76
2021/09/09 10:40:49;;;;;;;10.10;7.05;;;29.80;71.20;;;;;;5039645;28;20471;-76
2021/09/09 10:43:38;;;;;;;9.98;7.72;;;30.00;71.00;;;;;;5064468;28;20032;-76
2021/09/09 10:46:10;;;;;;;9.25;7.22;;;30.40;70.60;;;;;;5062328;28;20032;-75
2021/09/09 10:48:38;;;;;;;10.20;6.93;;;30.70;69.60;;;;;;5078267;28;20449;-76
2021/09/09 10:51:12;;;;;;;9.27;6.82;;;31.10;69.40;;;;;;5066707;28;20043;-75
2021/09/09 10:53:39;;;;;;;8.48;7.55;;;31.50;68.40;;;;;;5085048;28;20036;-76
2021/09/09 10:56:15;;;;;;;10.10;8.35;;;31.80;67.20;;;;;;5081039;28;20032;-76
2021/09/09 10:58:43;;;;;;;7.43;6.65;;;32.00;66.50;;;;;;5079720;28;20036;-77
2021/09/09 11:01:10;;;;;;;9.30;8.38;;;32.30;65.60;;;;;;5058503;28;20790;-76
2021/09/09 11:03:48;;;;;;;11.63;7.65;;;32.40;65.40;;;;;;5059716;28;20028;-75
2021/09/09 11:06:20;;;;;;;10.90;9.90;;;32.60;65.10;;;;;;5058268;28;20502;-75
2021/09/09 11:08:58;;;;;;;8.57;7.68;;;32.80;64.90;;;;;;5059646;28;20515;-76
2021/09/09 11:11:29;;;;;;;8.05;6.82;;;33.00;64.50;;;;;;5083817;28;20031;-76
2021/09/09 11:14:02;;;;;;;10.25;6.38;;;33.30;63.60;;;;;;5071082;28;20459;-78
2021/09/09 11:16:33;;;;;;;8.43;7.13;;;33.50;62.70;;;;;;5075338;28;20031;-78
2021/09/09 11:19:00;;;;;;;9.57;7.00;;;33.70;61.80;;;;;;5063790;28;20048;-78
2021/09/09 11:21:41;;;;;;;9.02;6.82;;;33.90;61.00;;;;;;5067361;28;20039;-77
2021/09/09 11:24:10;;;;;;;7.82;7.03;;;34.10;60.60;;;;;;5062402;28;20043;-78
2021/09/09 11:26:39;;;;;;;8.68;6.03;;;34.20;59.60;;;;;;5065720;28;20498;-78
2021/09/09 11:29:07;;;;;;;9.30;6.68;;;34.30;59.30;;;;;;5064248;28;20427;-77
2021/09/09 11:31:50;;;;;;;7.38;5.85;;;34.60;59.10;;;;;;5082355;28;20491;-77
2021/09/09 11:34:30;;;;;;;7.40;6.25;;;34.80;57.80;;;;;;5065018;28;20039;-78
2021/09/09 11:37:00;;;;;;;8.75;6.05;;;35.00;57.60;;;;;;5079994;28;20036;-77
2021/09/09 11:39:30;;;;;;;7.50;5.50;;;35.10;57.10;;;;;;5061980;28;20043;-77
2021/09/09 11:41:59;;;;;;;6.72;5.97;;;35.30;57.40;;;;;;5065719;28;20035;-77
2021/09/09 11:44:37;;;;;;;8.40;6.03;;;35.40;56.40;;;;;;5048979;28;20506;-77
2021/09/09 11:47:18;;;;;;;8.60;6.10;;;35.30;56.20;;;;;;5078146;28;20024;-78
2021/09/09 11:49:47;;;;;;;6.65;5.50;;;35.30;56.00;;;;;;5080521;28;20063;-78
2021/09/09 11:52:13;;;;;;;8.45;6.20;;;35.40;55.70;;;;;;5084437;28;20399;-79
2021/09/09 11:54:40;;;;;;;8.93;6.35;;;35.70;55.60;;;;;;5065638;28;20039;-79
2021/09/09 11:57:11;;;;;;;6.85;6.15;;;36.00;55.00;;;;;;5064863;28;20036;-79
2021/09/09 11:59:58;;;;;;;7.07;5.93;;;36.10;54.40;;;;;;5062534;28;20040;-79
2021/09/09 12:02:32;;;;;;;8.63;7.45;;;35.90;54.70;;;;;;5049229;28;20062;-76
2021/09/09 12:05:01;;;;;;;7.40;6.70;;;35.50;54.80;;;;;;5049146;28;20043;-76
2021/09/09 12:07:30;;;;;;;8.93;7.78;;;35.10;55.40;;;;;;5082359;28;20047;-76
2021/09/09 12:09:59;;;;;;;10.10;8.35;;;34.80;56.10;;;;;;5065172;28;20043;-76
2021/09/09 12:12:32;;;;;;;7.78;7.03;;;34.60;56.30;;;;;;5084721;28;20516;-76
2021/09/09 12:15:01;;;;;;;7.88;6.88;;;34.40;56.90;;;;;;5083978;28;20038;-75
2021/09/09 12:17:28;;;;;;;17.10;9.10;;;34.20;57.30;;;;;;5082347;28;20032;-75
2021/09/09 12:19:59;;;;;;;15.07;8.98;;;34.00;57.90;;;;;;5064973;28;20074;-75
2021/09/09 12:22:59;;;;;;;11.00;9.90;;;33.80;58.40;;;;;;5085278;28;20028;-76
2021/09/09 12:25:29;;;;;;;11.73;8.75;;;33.70;58.30;;;;;;5083343;28;20032;-75
2021/09/09 12:27:59;;;;;;;10.10;9.10;;;33.70;58.60;;;;;;5082959;28;20512;-75
2021/09/09 12:30:32;;;;;;;13.05;10.25;;;34.20;58.50;;;;;;5082212;28;20035;-75
2021/09/09 12:33:04;;;;;;;11.98;10.73;;;34.80;57.60;;;;;;5082902;28;20032;-80
2021/09/09 12:35:31;;;;;;;12.65;9.60;;;35.60;56.50;;;;;;5083960;28;20031;-80
2021/09/09 12:38:01;;;;;;;11.05;9.93;;;36.30;56.00;;;;;;5048243;28;20036;-80
2021/09/09 12:40:46;;;;;;;10.40;9.25;;;36.80;55.00;;;;;;5064739;28;20031;-80